createdAt,value
2017-06-16T00:00:41.003Z,1013.95
2017-06-16T00:02:02.833Z,1013.94
2017-06-16T00:03:24.353Z,1013.97
2017-06-16T00:04:45.906Z,1013.97
2017-06-16T00:06:08.072Z,1013.99
2017-06-16T00:07:29.894Z,1014
2017-06-16T00:08:51.393Z,1013.96
2017-06-16T00:10:13.215Z,1013.95
2017-06-16T00:11:35.376Z,1013.95
2017-06-16T00:12:57.654Z,1013.96
2017-06-16T00:14:20.292Z,1013.94
2017-06-16T00:15:42.761Z,1013.91
2017-06-16T00:17:04.273Z,1013.93
2017-06-16T00:18:26.605Z,1013.93
2017-06-16T00:19:48.433Z,1013.91
2017-06-16T00:21:10.363Z,1013.99
2017-06-16T00:22:32.252Z,1013.96
2017-06-16T00:23:54.382Z,1013.98
2017-06-16T00:25:16.264Z,1014.01
2017-06-16T00:26:38.413Z,1014.04
2017-06-16T00:28:00.589Z,1013.99
2017-06-16T00:29:23.145Z,1013.99
2017-06-16T00:30:45.114Z,1014.01
2017-06-16T00:32:07.284Z,1013.98
2017-06-16T00:33:29.154Z,1013.99
2017-06-16T00:34:50.974Z,1014.02
2017-06-16T00:36:13.116Z,1014.04
2017-06-16T00:37:35.271Z,1014.06
2017-06-16T00:38:57.397Z,1014.06
2017-06-16T00:40:19.283Z,1014.01
2017-06-16T00:41:41.444Z,1014.02
2017-06-16T00:43:02.955Z,1014
2017-06-16T00:44:24.786Z,1013.98
2017-06-16T00:45:46.620Z,1014.07
2017-06-16T00:47:09.090Z,1014.05
2017-06-16T00:48:31.254Z,1014.02
2017-06-16T00:49:53.084Z,1014.01
2017-06-16T00:51:15.235Z,1014.02
2017-06-16T00:52:37.072Z,1014.02
2017-06-16T00:53:59.354Z,1014.02
2017-06-16T00:55:21.183Z,1014
2017-06-16T00:56:43.466Z,1014
2017-06-16T00:58:05.366Z,1014.02
2017-06-16T00:59:27.664Z,1014.01
2017-06-16T01:00:49.981Z,1013.98
2017-06-16T01:02:11.804Z,1013.99
2017-06-16T01:03:33.324Z,1013.99
2017-06-16T01:04:54.813Z,1013.97
2017-06-16T01:06:17.444Z,1013.99
2017-06-16T01:07:39.270Z,1013.96
2017-06-16T01:09:01.123Z,1014
2017-06-16T01:10:22.414Z,1014.02
2017-06-16T01:11:44.572Z,1013.98
2017-06-16T01:13:06.403Z,1014.03
2017-06-16T01:14:27.965Z,1014.04
2017-06-16T01:15:50.433Z,1014.07
2017-06-16T01:17:11.632Z,1014.12
2017-06-16T01:18:33.886Z,1014.14
2017-06-16T01:19:55.713Z,1014.12
2017-06-16T01:21:17.633Z,1014.15
2017-06-16T01:22:39.769Z,1014.23
2017-06-16T01:24:02.247Z,1014.24
2017-06-16T01:25:24.403Z,1014.31
2017-06-16T01:26:46.903Z,1014.34
2017-06-16T01:28:09.047Z,1014.32
2017-06-16T01:29:30.896Z,1014.33
2017-06-16T01:30:52.464Z,1014.35
2017-06-16T01:32:14.019Z,1014.43
2017-06-16T01:33:36.494Z,1014.47
2017-06-16T01:34:58.635Z,1014.49
2017-06-16T01:36:20.763Z,1014.49
2017-06-16T01:37:42.923Z,1014.48
2017-06-16T01:39:05.054Z,1014.49
2017-06-16T01:40:27.308Z,1014.51
2017-06-16T01:41:49.123Z,1014.57
2017-06-16T01:43:10.643Z,1014.52
2017-06-16T01:44:32.512Z,1014.54
2017-06-16T01:45:54.745Z,1014.58
2017-06-16T01:47:17.292Z,1014.52
2017-06-16T01:48:39.242Z,1014.52
2017-06-16T01:50:00.762Z,1014.52
2017-06-16T01:51:23.033Z,1014.51
2017-06-16T01:52:44.893Z,1014.52
2017-06-16T01:54:07.022Z,1014.52
2017-06-16T01:55:28.881Z,1014.58
2017-06-16T01:56:51.128Z,1014.55
2017-06-16T01:58:13.281Z,1014.61
2017-06-16T01:59:35.433Z,1014.7
2017-06-16T02:00:58.200Z,1014.71
2017-06-16T02:02:19.081Z,1014.71
2017-06-16T02:03:41.234Z,1014.67
2017-06-16T02:05:03.050Z,1014.65
2017-06-16T02:06:24.910Z,1014.61
2017-06-16T02:07:46.739Z,1014.6
2017-06-16T02:09:08.894Z,1014.62
2017-06-16T02:10:30.782Z,1014.65
2017-06-16T02:11:52.613Z,1014.61
2017-06-16T02:13:14.852Z,1014.59
2017-06-16T02:14:36.703Z,1014.66
2017-06-16T02:15:58.590Z,1014.65
2017-06-16T02:17:20.727Z,1014.66
2017-06-16T02:18:42.547Z,1014.68
2017-06-16T02:20:04.374Z,1014.7
2017-06-16T02:21:26.523Z,1014.71
2017-06-16T02:22:48.644Z,1014.68
2017-06-16T02:24:10.469Z,1014.7
2017-06-16T02:25:32.335Z,1014.69
2017-06-16T02:26:54.163Z,1014.71
2017-06-16T02:28:15.993Z,1014.74
2017-06-16T02:29:38.152Z,1014.71
2017-06-16T02:31:00.283Z,1014.71
2017-06-16T02:32:22.753Z,1014.69
2017-06-16T02:33:45.051Z,1014.72
2017-06-16T02:35:07.621Z,1014.71
2017-06-16T02:36:29.181Z,1014.77
2017-06-16T02:37:50.994Z,1014.72
2017-06-16T02:39:13.512Z,1014.69
2017-06-16T02:40:35.023Z,1014.71
2017-06-16T02:41:56.259Z,1014.72
2017-06-16T02:43:18.406Z,1014.73
2017-06-16T02:44:40.554Z,1014.73
2017-06-16T02:46:03.030Z,1014.71
2017-06-16T02:47:24.622Z,1014.64
2017-06-16T02:48:46.894Z,1014.53
2017-06-16T02:50:09.304Z,1014.52
2017-06-16T02:51:31.122Z,1014.51
2017-06-16T02:52:52.942Z,1014.5
2017-06-16T02:54:14.423Z,1014.58
2017-06-16T02:55:36.873Z,1014.67
2017-06-16T02:56:58.809Z,1014.56
2017-06-16T02:58:21.062Z,1014.56
2017-06-16T02:59:43.514Z,1014.57
2017-06-16T03:01:06.261Z,1014.6
2017-06-16T03:02:28.706Z,1014.64
2017-06-16T03:03:50.632Z,1014.67
2017-06-16T03:05:12.893Z,1014.68
2017-06-16T03:06:34.754Z,1014.74
2017-06-16T03:07:56.953Z,1014.79
2017-06-16T03:09:18.772Z,1014.8
2017-06-16T03:10:40.914Z,1014.8
2017-06-16T03:12:03.203Z,1014.84
2017-06-16T03:13:25.064Z,1014.88
2017-06-16T03:14:47.553Z,1014.93
2017-06-16T03:16:09.391Z,1014.97
2017-06-16T03:17:31.672Z,1014.96
2017-06-16T03:18:53.511Z,1014.97
2017-06-16T03:20:15.013Z,1014.98
2017-06-16T03:21:37.590Z,1015.05
2017-06-16T03:22:59.732Z,1015.14
2017-06-16T03:24:21.989Z,1015.08
2017-06-16T03:25:43.844Z,1015.01
2017-06-16T03:27:05.350Z,1015.03
2017-06-16T03:28:26.862Z,1015.05
2017-06-16T03:29:48.796Z,1015.06
2017-06-16T03:31:10.623Z,1015.06
2017-06-16T03:32:33.074Z,1015.13
2017-06-16T03:33:54.904Z,1015.15
2017-06-16T03:35:17.063Z,1015.19
2017-06-16T03:36:39.202Z,1015.16
2017-06-16T03:38:01.345Z,1015.13
2017-06-16T03:39:22.840Z,1015.23
2017-06-16T03:40:44.654Z,1015.21
2017-06-16T03:42:06.543Z,1015.2
2017-06-16T03:43:29.016Z,1015.2
2017-06-16T03:44:51.163Z,1015.19
2017-06-16T03:46:13.293Z,1015.15
2017-06-16T03:47:35.753Z,1015.1
2017-06-16T03:48:57.884Z,1015.17
2017-06-16T03:50:19.716Z,1015.25
2017-06-16T03:51:42.164Z,1015.28
2017-06-16T03:53:04.114Z,1015.31
2017-06-16T03:54:26.311Z,1015.29
2017-06-16T03:55:48.771Z,1015.3
2017-06-16T03:57:10.685Z,1015.31
2017-06-16T03:58:32.823Z,1015.27
2017-06-16T03:59:54.952Z,1015.26
2017-06-16T04:01:16.783Z,1015.25
2017-06-16T04:02:38.972Z,1015.31
2017-06-16T04:04:01.454Z,1015.32
2017-06-16T04:05:23.598Z,1015.31
2017-06-16T04:06:45.728Z,1015.29
2017-06-16T04:08:07.551Z,1015.33
2017-06-16T04:09:29.101Z,1015.31
2017-06-16T04:10:50.951Z,1015.29
2017-06-16T04:12:12.787Z,1015.31
2017-06-16T04:13:34.003Z,1015.34
2017-06-16T04:14:56.152Z,1015.36
2017-06-16T04:16:18.634Z,1015.34
2017-06-16T04:17:40.776Z,1015.35
2017-06-16T04:19:02.496Z,1015.38
2017-06-16T04:20:24.012Z,1015.32
2017-06-16T04:21:45.945Z,1015.37
2017-06-16T04:23:07.782Z,1015.36
2017-06-16T04:24:29.379Z,1015.4
2017-06-16T04:25:51.854Z,1015.41
2017-06-16T04:27:13.789Z,1015.42
2017-06-16T04:28:36.300Z,1015.42
2017-06-16T04:29:58.460Z,1015.41
2017-06-16T04:31:20.525Z,1015.46
2017-06-16T04:32:42.084Z,1015.47
2017-06-16T04:34:04.242Z,1015.47
2017-06-16T04:35:26.398Z,1015.49
2017-06-16T04:36:48.551Z,1015.5
2017-06-16T04:38:10.113Z,1015.5
2017-06-16T04:39:31.976Z,1015.49
2017-06-16T04:40:53.808Z,1015.5
2017-06-16T04:42:15.962Z,1015.5
2017-06-16T04:43:37.857Z,1015.52
2017-06-16T04:44:59.703Z,1015.54
2017-06-16T04:46:21.864Z,1015.57
2017-06-16T04:47:44.002Z,1015.62
2017-06-16T04:49:05.632Z,1015.57
2017-06-16T04:50:27.781Z,1015.66
2017-06-16T04:51:49.620Z,1015.72
2017-06-16T04:53:11.788Z,1015.74
2017-06-16T04:54:33.642Z,1015.78
2017-06-16T04:55:54.853Z,1015.72
2017-06-16T04:57:16.796Z,1015.82
2017-06-16T04:58:38.970Z,1015.77
2017-06-16T05:00:01.170Z,1015.82
2017-06-16T05:01:23.355Z,1015.95
2017-06-16T05:02:45.659Z,1016.01
2017-06-16T05:04:08.003Z,1016.02
2017-06-16T05:05:29.832Z,1016
2017-06-16T05:06:52.030Z,1016.09
2017-06-16T05:08:13.872Z,1015.95
2017-06-16T05:09:36.047Z,1016.13
2017-06-16T05:10:58.008Z,1016.07
2017-06-16T05:12:19.922Z,1016.16
2017-06-16T05:13:41.454Z,1016.16
2017-06-16T05:15:02.712Z,1016.2
2017-06-16T05:16:24.969Z,1016.18
2017-06-16T05:17:47.472Z,1016.23
2017-06-16T05:19:09.322Z,1016.24
2017-06-16T05:20:31.149Z,1016.22
2017-06-16T05:21:53.428Z,1016.27
2017-06-16T05:23:16.004Z,1016.24
2017-06-16T05:24:38.147Z,1016.3
2017-06-16T05:26:00.341Z,1016.29
2017-06-16T05:27:22.199Z,1016.32
2017-06-16T05:28:43.422Z,1016.39
2017-06-16T05:30:04.967Z,1016.39
2017-06-16T05:31:27.144Z,1016.43
2017-06-16T05:32:49.612Z,1016.37
2017-06-16T05:34:11.447Z,1016.35
2017-06-16T05:35:33.604Z,1016.35
2017-06-16T05:36:56.413Z,1016.42
2017-06-16T05:38:18.249Z,1016.44
2017-06-16T05:39:40.402Z,1016.5
2017-06-16T05:41:02.292Z,1016.54
2017-06-16T05:42:23.819Z,1016.57
2017-06-16T05:43:45.993Z,1016.22
2017-06-16T05:45:08.602Z,1016.28
2017-06-16T05:46:30.459Z,1016.33
2017-06-16T05:47:52.932Z,1016.36
2017-06-16T05:49:15.234Z,1016.36
2017-06-16T05:50:37.963Z,1016.43
2017-06-16T05:52:00.100Z,1016.44
2017-06-16T05:53:22.994Z,1016.46
2017-06-16T05:54:45.462Z,1016.55
2017-06-16T05:56:08.247Z,1016.54
2017-06-16T05:57:30.093Z,1016.54
2017-06-16T05:58:52.559Z,1016.6
2017-06-16T06:00:16.510Z,1016.51
2017-06-16T06:01:41.521Z,1016.58
2017-06-16T06:03:03.793Z,1016.53
2017-06-16T06:04:25.801Z,1016.57
2017-06-16T06:05:47.991Z,1016.58
2017-06-16T06:07:10.143Z,1016.57
2017-06-16T06:08:31.962Z,1016.53
2017-06-16T06:09:54.115Z,1016.62
2017-06-16T06:11:16.603Z,1016.53
2017-06-16T06:12:38.552Z,1016.84
2017-06-16T06:14:00.711Z,1016.67
2017-06-16T06:15:23.178Z,1016.72
2017-06-16T06:16:45.092Z,1016.71
2017-06-16T06:18:07.257Z,1016.67
2017-06-16T06:19:29.446Z,1016.68
2017-06-16T06:20:51.986Z,1016.79
2017-06-16T06:22:13.830Z,1016.69
2017-06-16T06:23:36.079Z,1016.91
2017-06-16T06:24:57.613Z,1017.03
2017-06-16T06:26:19.505Z,1017.11
2017-06-16T06:27:41.698Z,1017.12
2017-06-16T06:29:03.853Z,1017.2
2017-06-16T06:30:25.709Z,1017.26
2017-06-16T06:31:47.904Z,1017.3
2017-06-16T06:33:10.377Z,1016.85
2017-06-16T06:34:32.551Z,1017.04
2017-06-16T06:35:54.505Z,1017.3
2017-06-16T06:37:16.461Z,1017.31
2017-06-16T06:38:38.352Z,1017.35
2017-06-16T06:40:00.258Z,1017.32
2017-06-16T06:41:22.211Z,1017.38
2017-06-16T06:42:44.381Z,1017.36
2017-06-16T06:44:06.313Z,1017.41
2017-06-16T06:45:28.992Z,1017.38
2017-06-16T06:46:50.896Z,1017.48
2017-06-16T06:48:13.133Z,1017.54
2017-06-16T06:49:35.298Z,1017.51
2017-06-16T06:50:57.461Z,1017.5
2017-06-16T06:52:19.613Z,1017.56
2017-06-16T06:53:41.464Z,1017.5
2017-06-16T06:55:03.625Z,1017.48
2017-06-16T06:56:25.811Z,1017.48
2017-06-16T06:57:47.973Z,1017.47
2017-06-16T06:59:09.810Z,1017.5
2017-06-16T07:00:31.477Z,1017.45
2017-06-16T07:01:54.066Z,1017.43
2017-06-16T07:03:16.581Z,1017.51
2017-06-16T07:04:38.758Z,1017.47
2017-06-16T07:06:00.429Z,1017.52
2017-06-16T07:07:22.111Z,1017.41
2017-06-16T07:08:44.285Z,1017.48
2017-06-16T07:10:06.760Z,1017.41
2017-06-16T07:11:29.265Z,1017.42
2017-06-16T07:12:51.484Z,1017.42
2017-06-16T07:14:14.029Z,1017.47
2017-06-16T07:15:36.513Z,1017.5
2017-06-16T07:16:58.359Z,1017.41
2017-06-16T07:18:19.892Z,1017.47
2017-06-16T07:19:42.057Z,1017.46
2017-06-16T07:21:03.942Z,1017.45
2017-06-16T07:22:26.527Z,1017.46
2017-06-16T07:23:48.712Z,1017.48
2017-06-16T07:25:10.894Z,1017.4
2017-06-16T07:26:33.362Z,1017.43
2017-06-16T07:27:55.581Z,1017.59
2017-06-16T07:29:17.701Z,1017.22
2017-06-16T07:30:40.180Z,1017.55
2017-06-16T07:32:02.370Z,1017.13
2017-06-16T07:33:24.212Z,1017.16
2017-06-16T07:34:46.378Z,1017.11
2017-06-16T07:36:08.845Z,1017.58
2017-06-16T07:37:30.396Z,1017.48
2017-06-16T07:38:52.566Z,1017.37
2017-06-16T07:40:14.734Z,1017.56
2017-06-16T07:41:37.000Z,1017.44
2017-06-16T07:42:59.461Z,1017.18
2017-06-16T07:44:21.330Z,1017.52
2017-06-16T07:45:43.912Z,1017.57
2017-06-16T07:47:06.392Z,1017.12
2017-06-16T07:48:28.885Z,1017.45
2017-06-16T07:49:51.394Z,1017
2017-06-16T07:51:13.889Z,1017.4
2017-06-16T07:52:36.070Z,1017.01
2017-06-16T07:53:58.303Z,1017.1
2017-06-16T07:55:20.462Z,1017.09
2017-06-16T07:56:42.632Z,1017.21
2017-06-16T07:58:05.156Z,1017.36
2017-06-16T07:59:27.616Z,1017.54
2017-06-16T08:00:49.773Z,1017.17
2017-06-16T08:02:12.265Z,1017.48
2017-06-16T08:03:34.112Z,1017.06
2017-06-16T08:04:55.790Z,1016.85
2017-06-16T08:06:17.954Z,1016.87
2017-06-16T08:07:40.724Z,1016.97
2017-06-16T08:09:02.577Z,1017.4
2017-06-16T08:10:25.181Z,1017.34
2017-06-16T08:11:47.030Z,1017.28
2017-06-16T08:13:08.870Z,1017.2
2017-06-16T08:14:31.372Z,1017.29
2017-06-16T08:15:53.241Z,1017.23
2017-06-16T08:17:15.090Z,1017.23
2017-06-16T08:18:37.295Z,1016.95
2017-06-16T08:19:59.452Z,1016.96
2017-06-16T08:21:21.630Z,1017.12
2017-06-16T08:22:43.796Z,1017.03
2017-06-16T08:24:06.353Z,1017.07
2017-06-16T08:25:28.491Z,1017.09
2017-06-16T08:26:50.719Z,1017.15
2017-06-16T08:28:13.315Z,1017.23
2017-06-16T08:29:35.467Z,1017.33
2017-06-16T08:30:56.990Z,1017.31
2017-06-16T08:32:19.476Z,1017.19
2017-06-16T08:33:41.382Z,1017.09
2017-06-16T08:35:04.291Z,1017
2017-06-16T08:36:26.460Z,1017.18
2017-06-16T08:37:48.290Z,1017.15
2017-06-16T08:39:10.118Z,1017.08
2017-06-16T08:40:31.762Z,1017.13
2017-06-16T08:41:53.347Z,1017.1
2017-06-16T08:43:15.191Z,1017.08
2017-06-16T08:44:36.728Z,1017.16
2017-06-16T08:45:58.581Z,1017.2
2017-06-16T08:47:20.556Z,1017.24
2017-06-16T08:48:42.694Z,1017.22
2017-06-16T08:50:04.876Z,1017.27
2017-06-16T08:51:26.641Z,1017.33
2017-06-16T08:52:48.163Z,1017.25
2017-06-16T08:54:10.011Z,1017.2
2017-06-16T08:55:32.477Z,1017.21
2017-06-16T08:56:54.410Z,1017.26
2017-06-16T08:58:16.957Z,1017.26
2017-06-16T08:59:38.528Z,1017.24
2017-06-16T09:01:00.366Z,1017.37
2017-06-16T09:02:22.262Z,1017.23
2017-06-16T09:03:44.101Z,1017.32
2017-06-16T09:05:05.313Z,1017.4
2017-06-16T09:06:27.483Z,1017.36
2017-06-16T09:07:49.002Z,1017.41
2017-06-16T09:09:10.527Z,1017.36
2017-06-16T09:10:32.698Z,1017.2
2017-06-16T09:11:55.191Z,1017.22
2017-06-16T09:13:17.342Z,1017.25
2017-06-16T09:14:39.508Z,1017.21
2017-06-16T09:16:01.671Z,1017.28
2017-06-16T09:17:23.853Z,1017.34
2017-06-16T09:18:46.342Z,1017.42
2017-06-16T09:20:08.517Z,1017.51
2017-06-16T09:21:31.001Z,1017.51
2017-06-16T09:22:52.852Z,1017.5
2017-06-16T09:24:15.319Z,1017.54
2017-06-16T09:25:37.174Z,1017.46
2017-06-16T09:26:59.049Z,1017.44
2017-06-16T09:28:21.217Z,1017.47
2017-06-16T09:29:43.368Z,1017.47
2017-06-16T09:31:05.189Z,1017.47
2017-06-16T09:32:27.119Z,1017.59
2017-06-16T09:33:49.302Z,1017.75
2017-06-16T09:35:11.791Z,1017.57
2017-06-16T09:36:32.989Z,1017.59
2017-06-16T09:37:54.512Z,1017.73
2017-06-16T09:39:16.426Z,1017.77
2017-06-16T09:40:38.914Z,1017.74
2017-06-16T09:42:00.754Z,1017.87
2017-06-16T09:43:23.419Z,1017.84
2017-06-16T09:44:45.558Z,1017.8
2017-06-16T09:46:07.991Z,1017.76
2017-06-16T09:47:29.509Z,1017.79
2017-06-16T09:48:51.971Z,1017.8
2017-06-16T09:50:13.501Z,1017.78
2017-06-16T09:51:36.002Z,1017.85
2017-06-16T09:52:57.508Z,1017.8
2017-06-16T09:54:19.342Z,1017.84
2017-06-16T09:55:40.855Z,1017.88
2017-06-16T09:57:03.449Z,1017.82
2017-06-16T09:58:25.908Z,1017.88
2017-06-16T09:59:48.132Z,1017.86
2017-06-16T10:01:10.291Z,1017.87
2017-06-16T10:02:32.831Z,1017.86
2017-06-16T10:03:54.984Z,1017.92
2017-06-16T10:05:17.672Z,1017.9
2017-06-16T10:06:40.169Z,1017.96
2017-06-16T10:08:02.651Z,1017.94
2017-06-16T10:09:25.142Z,1018.02
2017-06-16T10:10:47.428Z,1017.9
2017-06-16T10:12:09.335Z,1017.96
2017-06-16T10:13:30.860Z,1017.88
2017-06-16T10:14:52.701Z,1017.93
2017-06-16T10:16:14.853Z,1017.91
2017-06-16T10:17:36.713Z,1018
2017-06-16T10:18:58.880Z,1017.97
2017-06-16T10:20:20.830Z,1018
2017-06-16T10:21:42.773Z,1017.97
2017-06-16T10:23:05.241Z,1017.98
2017-06-16T10:24:27.401Z,1017.98
2017-06-16T10:25:49.881Z,1018.13
2017-06-16T10:27:12.521Z,1018.03
2017-06-16T10:28:34.352Z,1018.05
2017-06-16T10:29:56.842Z,1018.06
2017-06-16T10:31:18.701Z,1018.05
2017-06-16T10:32:40.865Z,1018
2017-06-16T10:34:03.114Z,1018.03
2017-06-16T10:35:24.995Z,1018.01
2017-06-16T10:36:47.253Z,1018.11
2017-06-16T10:38:09.724Z,1018.1
2017-06-16T10:39:31.872Z,1018.19
2017-06-16T10:40:54.019Z,1018.21
2017-06-16T10:42:16.500Z,1018.21
2017-06-16T10:43:38.962Z,1018.11
2017-06-16T10:45:01.139Z,1018.18
2017-06-16T10:46:22.326Z,1018.22
2017-06-16T10:47:43.961Z,1018.22
2017-06-16T10:49:06.446Z,1018.22
2017-06-16T10:50:28.612Z,1018.29
2017-06-16T10:51:50.451Z,1018.26
2017-06-16T10:53:12.600Z,1018.32
2017-06-16T10:54:34.568Z,1018.31
2017-06-16T10:55:56.783Z,1018.18
2017-06-16T10:57:18.737Z,1018.24
2017-06-16T10:58:40.704Z,1018.17
2017-06-16T11:00:02.911Z,1018.2
2017-06-16T11:01:25.121Z,1018.13
2017-06-16T11:02:47.587Z,1018.26
2017-06-16T11:04:10.151Z,1018.22
2017-06-16T11:05:32.317Z,1018.29
2017-06-16T11:06:54.469Z,1018.24
2017-06-16T11:08:16.632Z,1018.24
2017-06-16T11:09:39.126Z,1018.34
2017-06-16T11:11:01.279Z,1018.45
2017-06-16T11:12:23.437Z,1018.48
2017-06-16T11:13:44.962Z,1018.49
2017-06-16T11:15:07.119Z,1018.55
2017-06-16T11:16:29.280Z,1018.33
2017-06-16T11:17:51.163Z,1018.36
2017-06-16T11:19:13.407Z,1018.41
2017-06-16T11:20:34.934Z,1018.35
2017-06-16T11:21:57.104Z,1018.49
2017-06-16T11:23:19.248Z,1018.38
2017-06-16T11:24:41.755Z,1018.44
2017-06-16T11:26:04.042Z,1018.66
2017-06-16T11:27:25.882Z,1018.69
2017-06-16T11:28:48.387Z,1018.72
2017-06-16T11:30:10.865Z,1018.63
2017-06-16T11:31:33.331Z,1018.64
2017-06-16T11:32:55.825Z,1018.59
2017-06-16T11:34:17.667Z,1018.61
2017-06-16T11:35:40.150Z,1018.57
2017-06-16T11:37:02.033Z,1018.63
2017-06-16T11:38:24.535Z,1018.5
2017-06-16T11:39:46.782Z,1018.59
2017-06-16T11:41:09.382Z,1018.63
2017-06-16T11:42:31.542Z,1018.56
2017-06-16T11:43:53.367Z,1018.6
2017-06-16T11:45:15.515Z,1018.6
2017-06-16T11:46:38.177Z,1018.77
2017-06-16T11:48:00.523Z,1018.71
2017-06-16T11:49:22.168Z,1018.69
2017-06-16T11:50:43.505Z,1018.78
2017-06-16T11:52:05.651Z,1018.85
2017-06-16T11:53:28.127Z,1018.82
2017-06-16T11:54:49.990Z,1018.69
2017-06-16T11:56:12.201Z,1018.77
2017-06-16T11:57:34.356Z,1018.81
2017-06-16T11:58:56.949Z,1018.71
2017-06-16T12:00:18.822Z,1018.67
2017-06-16T12:01:41.281Z,1018.71
2017-06-16T12:03:03.767Z,1018.74
2017-06-16T12:04:25.302Z,1018.75
2017-06-16T12:05:47.465Z,1018.69
2017-06-16T12:07:09.940Z,1018.69
2017-06-16T12:08:32.124Z,1018.75
2017-06-16T12:09:54.594Z,1018.72
2017-06-16T12:11:16.793Z,1018.84
2017-06-16T12:12:38.938Z,1018.84
2017-06-16T12:14:01.073Z,1018.78
2017-06-16T12:15:23.261Z,1018.87
2017-06-16T12:16:44.780Z,1018.9
2017-06-16T12:18:07.277Z,1018.95
2017-06-16T12:19:29.802Z,1018.94
2017-06-16T12:20:52.277Z,1018.95
2017-06-16T12:22:14.822Z,1018.89
2017-06-16T12:23:37.321Z,1019.02
2017-06-16T12:25:00.140Z,1018.9
2017-06-16T12:26:22.773Z,1018.71
2017-06-16T12:27:45.258Z,1018.89
2017-06-16T12:29:07.109Z,1019
2017-06-16T12:30:29.613Z,1018.97
2017-06-16T12:31:51.806Z,1019.08
2017-06-16T12:33:14.267Z,1019.04
2017-06-16T12:34:36.480Z,1019.07
2017-06-16T12:35:58.645Z,1018.93
2017-06-16T12:37:20.921Z,1019.01
2017-06-16T12:38:43.071Z,1019.01
2017-06-16T12:40:05.230Z,1019.01
2017-06-16T12:41:27.465Z,1019.01
2017-06-16T12:42:49.627Z,1019.12
2017-06-16T12:44:11.160Z,1019.21
2017-06-16T12:45:33.355Z,1019.27
2017-06-16T12:46:55.187Z,1019.16
2017-06-16T12:48:17.497Z,1019.02
2017-06-16T12:49:39.745Z,1019.05
2017-06-16T12:51:01.916Z,1019.04
2017-06-16T12:52:24.392Z,1019.16
2017-06-16T12:53:46.353Z,1019.08
2017-06-16T12:55:08.830Z,1019.11
2017-06-16T12:56:31.328Z,1019.15
2017-06-16T12:57:53.577Z,1019.12
2017-06-16T12:59:16.062Z,1019.02
2017-06-16T13:00:38.240Z,1019.12
2017-06-16T13:01:59.871Z,1019.12
2017-06-16T13:03:22.474Z,1019
2017-06-16T13:04:44.668Z,1019.01
2017-06-16T13:06:07.141Z,1019.16
2017-06-16T13:07:29.616Z,1019.19
2017-06-16T13:10:13.992Z,1019.41
2017-06-16T13:11:36.166Z,1019.29
2017-06-16T13:12:58.327Z,1019.37
2017-06-16T13:14:20.547Z,1019.41
2017-06-16T13:15:43.051Z,1019.42
2017-06-16T13:17:05.308Z,1019.39
2017-06-16T13:18:27.503Z,1019.44
2017-06-16T13:19:49.068Z,1019.49
2017-06-16T13:21:11.231Z,1019.54
2017-06-16T13:22:33.479Z,1019.44
2017-06-16T13:23:55.022Z,1019.46
2017-06-16T13:25:17.507Z,1019.33
2017-06-16T13:26:39.024Z,1019.39
2017-06-16T13:28:01.507Z,1019.49
2017-06-16T13:29:23.369Z,1019.45
2017-06-16T13:30:45.012Z,1019.22
2017-06-16T13:32:07.181Z,1019.38
2017-06-16T13:33:29.325Z,1019.38
2017-06-16T13:34:51.510Z,1019.46
2017-06-16T13:36:13.706Z,1019.59
2017-06-16T13:37:36.192Z,1019.55
2017-06-16T13:38:58.367Z,1019.52
2017-06-16T13:40:20.345Z,1019.55
2017-06-16T13:41:42.884Z,1019.56
2017-06-16T13:43:04.484Z,1019.58
2017-06-16T13:44:26.991Z,1019.53
2017-06-16T13:45:49.217Z,1019.66
2017-06-16T13:47:11.362Z,1019.63
2017-06-16T13:48:33.861Z,1019.64
2017-06-16T13:49:55.400Z,1019.56
2017-06-16T13:51:18.064Z,1019.66
2017-06-16T13:52:40.577Z,1019.74
2017-06-16T13:54:02.784Z,1019.63
2017-06-16T13:55:25.303Z,1019.73
2017-06-16T13:56:47.451Z,1019.76
2017-06-16T13:58:09.691Z,1019.77
2017-06-16T13:59:32.190Z,1019.8
2017-06-16T14:00:54.371Z,1019.73
2017-06-16T14:02:16.850Z,1019.76
2017-06-16T14:03:38.740Z,1019.8
2017-06-16T14:05:00.634Z,1019.79
2017-06-16T14:06:22.812Z,1019.88
2017-06-16T14:07:44.972Z,1019.88
2017-06-16T14:09:06.507Z,1019.96
2017-06-16T14:10:29.042Z,1019.99
2017-06-16T14:11:51.201Z,1019.95
2017-06-16T14:13:13.370Z,1019.96
2017-06-16T14:14:35.540Z,1020
2017-06-16T14:15:57.367Z,1020.03
2017-06-16T14:17:19.214Z,1020.05
2017-06-16T14:18:41.694Z,1020.13
2017-06-16T14:20:03.540Z,1020.03
2017-06-16T14:21:25.370Z,1020.15
2017-06-16T14:22:47.825Z,1020.17
2017-06-16T14:24:09.991Z,1020.15
2017-06-16T14:25:31.830Z,1020.13
2017-06-16T14:26:54.004Z,1020.19
2017-06-16T14:28:16.457Z,1020.22
2017-06-16T14:29:39.011Z,1020.25
2017-06-16T14:31:01.523Z,1020.26
2017-06-16T14:32:23.380Z,1020.24
2017-06-16T14:33:45.873Z,1020.3
2017-06-16T14:35:08.359Z,1020.37
2017-06-16T14:36:31.140Z,1020.34
2017-06-16T14:37:53.639Z,1020.13
2017-06-16T14:39:15.473Z,1020.12
2017-06-16T14:40:37.299Z,1020.09
2017-06-16T14:41:59.782Z,1020.24
2017-06-16T14:43:21.950Z,1020.14
2017-06-16T14:44:44.431Z,1020.13
2017-06-16T14:46:06.612Z,1020.14
2017-06-16T14:47:29.136Z,1020.16
2017-06-16T14:48:51.288Z,1020.06
2017-06-16T14:50:12.860Z,1020.05
2017-06-16T14:51:35.005Z,1019.98
2017-06-16T14:52:56.850Z,1020.19
2017-06-16T14:54:18.681Z,1020.2
2017-06-16T14:55:41.151Z,1020.19
2017-06-16T14:57:03.330Z,1020.19
2017-06-16T14:58:26.150Z,1020.2
2017-06-16T14:59:48.648Z,1020.19
2017-06-16T15:01:10.837Z,1020.28
2017-06-16T15:02:33.029Z,1020.36
2017-06-16T15:03:55.501Z,1020.31
2017-06-16T15:05:17.852Z,1020.3
2017-06-16T15:06:39.694Z,1020.35
2017-06-16T15:08:02.241Z,1020.23
2017-06-16T15:09:24.401Z,1020.28
2017-06-16T15:10:46.891Z,1020.27
2017-06-16T15:12:09.400Z,1020.25
2017-06-16T15:13:31.682Z,1020.27
2017-06-16T15:14:53.840Z,1020.24
2017-06-16T15:16:16.374Z,1020.3
2017-06-16T15:17:38.539Z,1020.28
2017-06-16T15:19:01.083Z,1020.34
2017-06-16T15:20:23.553Z,1020.34
2017-06-16T15:21:45.397Z,1020.31
2017-06-16T15:23:07.661Z,1020.32
2017-06-16T15:24:30.138Z,1020.38
2017-06-16T15:25:52.640Z,1020.39
2017-06-16T15:27:14.521Z,1020.35
2017-06-16T15:28:36.358Z,1020.39
2017-06-16T15:29:58.502Z,1020.36
2017-06-16T15:31:19.704Z,1020.42
2017-06-16T15:32:42.189Z,1020.36
2017-06-16T15:34:04.364Z,1020.32
2017-06-16T15:35:26.851Z,1020.35
2017-06-16T15:36:48.713Z,1020.37
2017-06-16T15:38:10.557Z,1020.34
2017-06-16T15:39:32.710Z,1020.4
2017-06-16T15:40:54.657Z,1020.41
2017-06-16T15:42:17.223Z,1020.39
2017-06-16T15:43:38.803Z,1020.38
2017-06-16T15:45:01.307Z,1020.49
2017-06-16T15:46:23.799Z,1020.45
2017-06-16T15:47:45.352Z,1020.44
2017-06-16T15:49:07.592Z,1020.41
2017-06-16T15:50:29.803Z,1020.4
2017-06-16T15:51:52.321Z,1020.49
2017-06-16T15:53:14.540Z,1020.46
2017-06-16T15:54:36.700Z,1020.44
2017-06-16T15:55:58.854Z,1020.44
2017-06-16T15:57:20.394Z,1020.54
2017-06-16T15:58:42.923Z,1020.53
2017-06-16T16:00:05.401Z,1020.52
2017-06-16T16:01:27.930Z,1020.54
2017-06-16T16:02:50.200Z,1020.62
2017-06-16T16:04:12.711Z,1020.52
2017-06-16T16:05:34.625Z,1020.58
2017-06-16T16:06:56.779Z,1020.59
2017-06-16T16:08:19.337Z,1020.56
2017-06-16T16:09:41.180Z,1020.54
2017-06-16T16:11:03.356Z,1020.55
2017-06-16T16:12:25.967Z,1020.57
2017-06-16T16:13:48.140Z,1020.51
2017-06-16T16:15:10.038Z,1020.56
2017-06-16T16:16:32.550Z,1020.61
2017-06-16T16:17:54.741Z,1020.61
2017-06-16T16:19:17.352Z,1020.6
2017-06-16T16:20:39.821Z,1020.58
2017-06-16T16:22:01.726Z,1020.67
2017-06-16T16:23:24.232Z,1020.66
2017-06-16T16:24:46.709Z,1020.66
2017-06-16T16:26:08.871Z,1020.71
2017-06-16T16:27:31.122Z,1020.76
2017-06-16T16:28:53.242Z,1020.72
2017-06-16T16:30:15.083Z,1020.74
2017-06-16T16:31:37.303Z,1020.71
2017-06-16T16:32:59.144Z,1020.81
2017-06-16T16:34:21.421Z,1020.82
2017-06-16T16:35:43.386Z,1020.79
2017-06-16T16:37:05.558Z,1020.84
2017-06-16T16:38:27.742Z,1020.91